sensor_id;sensor_type;location;lat;lon;timestamp;P1;durP1;ratioP1;P2;durP2;ratioP2
11414;SDS011;5763;42.714;23.244;2022-12-29T00:02:25;23.08;;;16.67;;
11414;SDS011;5763;42.714;23.244;2022-12-29T00:04:53;25.08;;;17.63;;
11414;SDS011;5763;42.714;23.244;2022-12-29T00:07:21;21.85;;;17.73;;
11414;SDS011;5763;42.714;23.244;2022-12-29T00:09:48;22.88;;;18.20;;
11414;SDS011;5763;42.714;23.244;2022-12-29T00:12:15;22.73;;;17.15;;
11414;SDS011;5763;42.714;23.244;2022-12-29T00:14:41;23.08;;;17.48;;
11414;SDS011;5763;42.714;23.244;2022-12-29T00:17:25;22.15;;;16.42;;
11414;SDS011;5763;42.714;23.244;2022-12-29T00:19:52;19.50;;;15.95;;
11414;SDS011;5763;42.714;23.244;2022-12-29T00:22:38;20.00;;;15.57;;
11414;SDS011;5763;42.714;23.244;2022-12-29T00:25:22;23.00;;;15.75;;
11414;SDS011;5763;42.714;23.244;2022-12-29T00:28:07;22.02;;;16.02;;
11414;SDS011;5763;42.714;23.244;2022-12-29T00:30:52;21.98;;;16.63;;
11414;SDS011;5763;42.714;23.244;2022-12-29T00:33:35;19.25;;;15.40;;
11414;SDS011;5763;42.714;23.244;2022-12-29T00:36:21;21.83;;;15.65;;
11414;SDS011;5763;42.714;23.244;2022-12-29T00:38:55;20.05;;;15.25;;
11414;SDS011;5763;42.714;23.244;2022-12-29T00:41:42;19.55;;;15.50;;
11414;SDS011;5763;42.714;23.244;2022-12-29T00:44:27;19.63;;;15.25;;
11414;SDS011;5763;42.714;23.244;2022-12-29T00:46:54;19.33;;;15.38;;
11414;SDS011;5763;42.714;23.244;2022-12-29T00:49:21;19.50;;;15.43;;
11414;SDS011;5763;42.714;23.244;2022-12-29T00:51:57;21.40;;;15.88;;
11414;SDS011;5763;42.714;23.244;2022-12-29T00:54:27;20.92;;;14.98;;
11414;SDS011;5763;42.714;23.244;2022-12-29T00:56:55;20.60;;;15.88;;
11414;SDS011;5763;42.714;23.244;2022-12-29T00:59:22;25.17;;;18.10;;
11414;SDS011;5763;42.714;23.244;2022-12-29T01:01:49;25.05;;;19.65;;
11414;SDS011;5763;42.714;23.244;2022-12-29T01:04:18;27.75;;;21.25;;
11414;SDS011;5763;42.714;23.244;2022-12-29T01:06:45;27.27;;;20.08;;
11414;SDS011;5763;42.714;23.244;2022-12-29T01:09:12;26.40;;;19.35;;
11414;SDS011;5763;42.714;23.244;2022-12-29T01:11:58;27.63;;;20.60;;
11414;SDS011;5763;42.714;23.244;2022-12-29T01:14:25;26.85;;;19.80;;
11414;SDS011;5763;42.714;23.244;2022-12-29T01:16:53;26.63;;;21.08;;
11414;SDS011;5763;42.714;23.244;2022-12-29T01:19:20;26.27;;;19.48;;
11414;SDS011;5763;42.714;23.244;2022-12-29T01:21:48;24.33;;;18.92;;
11414;SDS011;5763;42.714;23.244;2022-12-29T01:24:15;24.50;;;18.02;;
11414;SDS011;5763;42.714;23.244;2022-12-29T01:26:43;25.30;;;19.58;;
11414;SDS011;5763;42.714;23.244;2022-12-29T01:29:12;24.45;;;19.50;;
11414;SDS011;5763;42.714;23.244;2022-12-29T01:31:41;25.73;;;18.92;;
11414;SDS011;5763;42.714;23.244;2022-12-29T01:34:08;23.63;;;18.92;;
11414;SDS011;5763;42.714;23.244;2022-12-29T01:36:35;24.15;;;18.67;;
11414;SDS011;5763;42.714;23.244;2022-12-29T01:39:02;21.98;;;18.67;;
11414;SDS011;5763;42.714;23.244;2022-12-29T01:41:29;28.02;;;18.90;;
11414;SDS011;5763;42.714;23.244;2022-12-29T01:43:57;25.23;;;18.33;;
11414;SDS011;5763;42.714;23.244;2022-12-29T01:46:28;26.25;;;18.70;;
11414;SDS011;5763;42.714;23.244;2022-12-29T01:48:59;24.10;;;19.88;;
11414;SDS011;5763;42.714;23.244;2022-12-29T01:51:31;25.00;;;19.70;;
11414;SDS011;5763;42.714;23.244;2022-12-29T01:54:02;26.92;;;20.05;;
11414;SDS011;5763;42.714;23.244;2022-12-29T01:56:33;27.58;;;19.45;;
11414;SDS011;5763;42.714;23.244;2022-12-29T01:59:02;26.58;;;19.00;;
11414;SDS011;5763;42.714;23.244;2022-12-29T02:01:34;23.85;;;19.20;;
11414;SDS011;5763;42.714;23.244;2022-12-29T02:04:01;23.85;;;18.40;;
11414;SDS011;5763;42.714;23.244;2022-12-29T02:06:28;25.80;;;18.95;;
11414;SDS011;5763;42.714;23.244;2022-12-29T02:08:59;22.63;;;18.02;;
11414;SDS011;5763;42.714;23.244;2022-12-29T02:11:26;24.35;;;19.13;;
11414;SDS011;5763;42.714;23.244;2022-12-29T02:13:56;24.95;;;18.60;;
11414;SDS011;5763;42.714;23.244;2022-12-29T02:16:29;22.65;;;17.88;;
11414;SDS011;5763;42.714;23.244;2022-12-29T02:22:10;24.20;;;18.40;;
11414;SDS011;5763;42.714;23.244;2022-12-29T02:27:52;23.75;;;18.02;;
11414;SDS011;5763;42.714;23.244;2022-12-29T02:33:30;25.35;;;19.20;;
11414;SDS011;5763;42.714;23.244;2022-12-29T02:36:07;23.20;;;17.30;;
11414;SDS011;5763;42.714;23.244;2022-12-29T02:38:48;22.42;;;17.38;;
11414;SDS011;5763;42.714;23.244;2022-12-29T02:41:23;24.27;;;17.80;;
11414;SDS011;5763;42.714;23.244;2022-12-29T02:43:56;21.20;;;16.42;;
11414;SDS011;5763;42.714;23.244;2022-12-29T02:46:33;24.42;;;17.77;;
11414;SDS011;5763;42.714;23.244;2022-12-29T02:49:04;20.35;;;17.60;;
11414;SDS011;5763;42.714;23.244;2022-12-29T02:51:39;20.45;;;17.30;;
11414;SDS011;5763;42.714;23.244;2022-12-29T02:54:11;21.45;;;16.83;;
11414;SDS011;5763;42.714;23.244;2022-12-29T02:56:55;25.75;;;17.02;;
11414;SDS011;5763;42.714;23.244;2022-12-29T02:59:22;21.55;;;16.85;;
11414;SDS011;5763;42.714;23.244;2022-12-29T03:02:03;21.45;;;17.35;;
11414;SDS011;5763;42.714;23.244;2022-12-29T03:04:48;21.55;;;17.02;;
11414;SDS011;5763;42.714;23.244;2022-12-29T03:07:29;20.52;;;15.88;;
11414;SDS011;5763;42.714;23.244;2022-12-29T03:10:04;22.15;;;17.25;;
11414;SDS011;5763;42.714;23.244;2022-12-29T03:12:42;22.05;;;17.10;;
11414;SDS011;5763;42.714;23.244;2022-12-29T03:15:33;23.13;;;17.08;;
11414;SDS011;5763;42.714;23.244;2022-12-29T03:18:24;23.48;;;17.27;;
11414;SDS011;5763;42.714;23.244;2022-12-29T03:20:57;23.13;;;17.38;;
11414;SDS011;5763;42.714;23.244;2022-12-29T03:23:29;24.77;;;17.67;;
11414;SDS011;5763;42.714;23.244;2022-12-29T03:25:58;25.05;;;18.05;;
11414;SDS011;5763;42.714;23.244;2022-12-29T03:28:29;23.25;;;17.60;;
11414;SDS011;5763;42.714;23.244;2022-12-29T03:31:00;23.30;;;18.05;;
11414;SDS011;5763;42.714;23.244;2022-12-29T03:33:30;25.27;;;18.75;;
11414;SDS011;5763;42.714;23.244;2022-12-29T03:36:00;22.95;;;18.48;;
11414;SDS011;5763;42.714;23.244;2022-12-29T03:38:33;24.17;;;18.60;;
11414;SDS011;5763;42.714;23.244;2022-12-29T03:41:03;21.98;;;16.33;;
11414;SDS011;5763;42.714;23.244;2022-12-29T03:43:32;19.65;;;15.30;;
11414;SDS011;5763;42.714;23.244;2022-12-29T03:45:59;20.92;;;16.00;;
11414;SDS011;5763;42.714;23.244;2022-12-29T03:48:26;20.10;;;16.05;;
11414;SDS011;5763;42.714;23.244;2022-12-29T03:50:54;21.50;;;16.00;;
11414;SDS011;5763;42.714;23.244;2022-12-29T03:53:21;20.27;;;15.85;;
11414;SDS011;5763;42.714;23.244;2022-12-29T03:55:48;19.52;;;15.27;;
11414;SDS011;5763;42.714;23.244;2022-12-29T03:58:14;21.23;;;16.08;;
11414;SDS011;5763;42.714;23.244;2022-12-29T04:00:41;23.77;;;16.15;;
11414;SDS011;5763;42.714;23.244;2022-12-29T04:03:08;20.73;;;16.08;;
11414;SDS011;5763;42.714;23.244;2022-12-29T04:05:35;19.70;;;15.32;;
11414;SDS011;5763;42.714;23.244;2022-12-29T04:08:03;18.35;;;15.18;;
11414;SDS011;5763;42.714;23.244;2022-12-29T04:10:30;21.80;;;15.88;;
11414;SDS011;5763;42.714;23.244;2022-12-29T04:12:57;21.75;;;16.05;;
11414;SDS011;5763;42.714;23.244;2022-12-29T04:15:23;18.38;;;15.90;;
11414;SDS011;5763;42.714;23.244;2022-12-29T04:17:51;20.98;;;16.20;;
11414;SDS011;5763;42.714;23.244;2022-12-29T04:20:18;20.77;;;15.98;;
11414;SDS011;5763;42.714;23.244;2022-12-29T04:23:03;19.90;;;16.08;;
11414;SDS011;5763;42.714;23.244;2022-12-29T04:25:31;22.00;;;15.20;;
11414;SDS011;5763;42.714;23.244;2022-12-29T04:27:58;19.52;;;16.02;;
11414;SDS011;5763;42.714;23.244;2022-12-29T04:30:25;19.13;;;14.63;;
11414;SDS011;5763;42.714;23.244;2022-12-29T04:32:53;20.88;;;15.68;;
11414;SDS011;5763;42.714;23.244;2022-12-29T04:35:20;18.25;;;14.68;;
11414;SDS011;5763;42.714;23.244;2022-12-29T04:37:47;17.88;;;15.15;;
11414;SDS011;5763;42.714;23.244;2022-12-29T04:40:15;21.88;;;14.75;;
11414;SDS011;5763;42.714;23.244;2022-12-29T04:42:41;17.98;;;14.43;;
11414;SDS011;5763;42.714;23.244;2022-12-29T04:45:08;17.95;;;14.40;;
11414;SDS011;5763;42.714;23.244;2022-12-29T04:47:36;20.83;;;15.10;;
11414;SDS011;5763;42.714;23.244;2022-12-29T04:50:03;17.92;;;14.43;;
11414;SDS011;5763;42.714;23.244;2022-12-29T04:52:30;20.13;;;14.68;;
11414;SDS011;5763;42.714;23.244;2022-12-29T04:54:57;19.15;;;14.32;;
11414;SDS011;5763;42.714;23.244;2022-12-29T04:57:25;18.75;;;15.73;;
11414;SDS011;5763;42.714;23.244;2022-12-29T04:59:52;20.10;;;15.90;;
11414;SDS011;5763;42.714;23.244;2022-12-29T05:02:19;20.98;;;16.20;;
11414;SDS011;5763;42.714;23.244;2022-12-29T05:04:46;18.90;;;16.05;;
11414;SDS011;5763;42.714;23.244;2022-12-29T05:07:13;22.73;;;15.38;;
11414;SDS011;5763;42.714;23.244;2022-12-29T05:09:40;20.05;;;16.23;;
11414;SDS011;5763;42.714;23.244;2022-12-29T05:12:06;18.75;;;14.93;;
11414;SDS011;5763;42.714;23.244;2022-12-29T05:14:35;17.48;;;15.15;;
11414;SDS011;5763;42.714;23.244;2022-12-29T05:20:23;36.60;;;21.73;;
11414;SDS011;5763;42.714;23.244;2022-12-29T05:22:50;36.85;;;21.75;;
11414;SDS011;5763;42.714;23.244;2022-12-29T05:25:17;29.90;;;19.92;;
11414;SDS011;5763;42.714;23.244;2022-12-29T05:27:43;25.40;;;17.55;;
11414;SDS011;5763;42.714;23.244;2022-12-29T05:30:12;21.58;;;16.50;;
11414;SDS011;5763;42.714;23.244;2022-12-29T05:32:39;21.70;;;17.67;;
11414;SDS011;5763;42.714;23.244;2022-12-29T05:35:06;22.38;;;15.85;;
11414;SDS011;5763;42.714;23.244;2022-12-29T05:37:34;19.30;;;16.08;;
11414;SDS011;5763;42.714;23.244;2022-12-29T05:40:00;19.05;;;15.73;;
11414;SDS011;5763;42.714;23.244;2022-12-29T05:42:27;20.23;;;16.00;;
11414;SDS011;5763;42.714;23.244;2022-12-29T05:44:54;19.75;;;16.10;;
11414;SDS011;5763;42.714;23.244;2022-12-29T05:47:22;22.25;;;16.85;;
11414;SDS011;5763;42.714;23.244;2022-12-29T05:49:49;20.73;;;14.98;;
11414;SDS011;5763;42.714;23.244;2022-12-29T05:55:11;19.83;;;15.45;;
11414;SDS011;5763;42.714;23.244;2022-12-29T05:57:38;21.95;;;17.65;;
11414;SDS011;5763;42.714;23.244;2022-12-29T06:00:05;22.65;;;16.63;;
11414;SDS011;5763;42.714;23.244;2022-12-29T06:02:36;21.52;;;15.82;;
11414;SDS011;5763;42.714;23.244;2022-12-29T06:05:02;24.00;;;17.05;;
11414;SDS011;5763;42.714;23.244;2022-12-29T06:07:30;22.10;;;17.30;;
11414;SDS011;5763;42.714;23.244;2022-12-29T06:09:57;20.65;;;16.20;;
11414;SDS011;5763;42.714;23.244;2022-12-29T06:12:23;22.65;;;17.13;;
11414;SDS011;5763;42.714;23.244;2022-12-29T06:14:50;21.02;;;16.63;;
11414;SDS011;5763;42.714;23.244;2022-12-29T06:17:17;26.55;;;16.23;;
11414;SDS011;5763;42.714;23.244;2022-12-29T06:19:45;20.67;;;16.17;;
11414;SDS011;5763;42.714;23.244;2022-12-29T06:22:12;19.83;;;16.42;;
11414;SDS011;5763;42.714;23.244;2022-12-29T06:24:39;22.75;;;17.13;;
11414;SDS011;5763;42.714;23.244;2022-12-29T06:27:05;21.92;;;16.95;;
11414;SDS011;5763;42.714;23.244;2022-12-29T06:29:32;20.10;;;16.10;;
11414;SDS011;5763;42.714;23.244;2022-12-29T06:32:01;21.00;;;16.60;;
11414;SDS011;5763;42.714;23.244;2022-12-29T06:34:28;22.10;;;16.38;;
11414;SDS011;5763;42.714;23.244;2022-12-29T06:36:56;22.00;;;16.73;;
11414;SDS011;5763;42.714;23.244;2022-12-29T06:39:23;22.92;;;16.58;;
11414;SDS011;5763;42.714;23.244;2022-12-29T06:41:51;19.58;;;15.68;;
11414;SDS011;5763;42.714;23.244;2022-12-29T06:44:18;21.38;;;16.20;;
11414;SDS011;5763;42.714;23.244;2022-12-29T06:46:45;19.38;;;15.77;;
11414;SDS011;5763;42.714;23.244;2022-12-29T06:49:12;21.05;;;15.77;;
11414;SDS011;5763;42.714;23.244;2022-12-29T06:51:39;24.45;;;16.52;;
11414;SDS011;5763;42.714;23.244;2022-12-29T06:54:08;21.33;;;15.55;;
11414;SDS011;5763;42.714;23.244;2022-12-29T06:56:35;20.80;;;15.70;;
11414;SDS011;5763;42.714;23.244;2022-12-29T06:59:01;22.83;;;15.40;;
11414;SDS011;5763;42.714;23.244;2022-12-29T07:01:28;17.85;;;14.38;;
11414;SDS011;5763;42.714;23.244;2022-12-29T07:03:55;18.88;;;15.50;;
11414;SDS011;5763;42.714;23.244;2022-12-29T07:06:22;21.30;;;15.23;;
11414;SDS011;5763;42.714;23.244;2022-12-29T07:08:49;20.30;;;16.33;;
11414;SDS011;5763;42.714;23.244;2022-12-29T07:11:20;19.35;;;15.93;;
11414;SDS011;5763;42.714;23.244;2022-12-29T07:13:47;25.48;;;18.55;;
11414;SDS011;5763;42.714;23.244;2022-12-29T07:16:14;23.20;;;18.85;;
11414;SDS011;5763;42.714;23.244;2022-12-29T07:18:41;26.85;;;20.27;;
11414;SDS011;5763;42.714;23.244;2022-12-29T07:21:08;26.35;;;19.20;;
11414;SDS011;5763;42.714;23.244;2022-12-29T07:23:35;22.48;;;17.92;;
11414;SDS011;5763;42.714;23.244;2022-12-29T07:26:02;22.15;;;16.95;;
11414;SDS011;5763;42.714;23.244;2022-12-29T07:28:32;22.23;;;15.77;;
11414;SDS011;5763;42.714;23.244;2022-12-29T07:31:00;16.92;;;13.90;;
11414;SDS011;5763;42.714;23.244;2022-12-29T07:33:28;17.38;;;13.52;;
11414;SDS011;5763;42.714;23.244;2022-12-29T07:35:55;16.15;;;13.27;;
11414;SDS011;5763;42.714;23.244;2022-12-29T07:38:22;15.40;;;13.20;;
11414;SDS011;5763;42.714;23.244;2022-12-29T07:40:49;18.08;;;14.27;;
11414;SDS011;5763;42.714;23.244;2022-12-29T07:43:15;21.05;;;14.90;;
11414;SDS011;5763;42.714;23.244;2022-12-29T07:45:44;17.65;;;14.55;;
11414;SDS011;5763;42.714;23.244;2022-12-29T07:48:11;20.95;;;14.05;;
11414;SDS011;5763;42.714;23.244;2022-12-29T07:50:37;20.80;;;15.60;;
11414;SDS011;5763;42.714;23.244;2022-12-29T07:53:04;15.75;;;13.35;;
11414;SDS011;5763;42.714;23.244;2022-12-29T07:55:31;18.33;;;13.80;;
11414;SDS011;5763;42.714;23.244;2022-12-29T07:57:58;17.58;;;13.70;;
11414;SDS011;5763;42.714;23.244;2022-12-29T08:00:24;17.40;;;12.95;;
11414;SDS011;5763;42.714;23.244;2022-12-29T08:02:53;17.85;;;14.55;;
11414;SDS011;5763;42.714;23.244;2022-12-29T08:05:20;16.85;;;14.50;;
11414;SDS011;5763;42.714;23.244;2022-12-29T08:07:47;20.00;;;14.82;;
11414;SDS011;5763;42.714;23.244;2022-12-29T08:10:14;21.17;;;14.45;;
11414;SDS011;5763;42.714;23.244;2022-12-29T08:12:42;16.13;;;13.23;;
11414;SDS011;5763;42.714;23.244;2022-12-29T08:15:09;15.98;;;13.30;;
11414;SDS011;5763;42.714;23.244;2022-12-29T08:17:37;16.48;;;13.48;;
11414;SDS011;5763;42.714;23.244;2022-12-29T08:20:06;19.98;;;13.82;;
11414;SDS011;5763;42.714;23.244;2022-12-29T08:22:33;19.55;;;13.32;;
11414;SDS011;5763;42.714;23.244;2022-12-29T08:25:00;19.13;;;13.90;;
11414;SDS011;5763;42.714;23.244;2022-12-29T08:27:27;15.05;;;13.20;;
11414;SDS011;5763;42.714;23.244;2022-12-29T08:29:54;16.98;;;13.30;;
11414;SDS011;5763;42.714;23.244;2022-12-29T08:32:21;17.40;;;13.40;;
11414;SDS011;5763;42.714;23.244;2022-12-29T08:34:48;17.92;;;13.10;;
11414;SDS011;5763;42.714;23.244;2022-12-29T08:37:16;16.98;;;13.55;;
11414;SDS011;5763;42.714;23.244;2022-12-29T08:39:42;16.55;;;13.13;;
11414;SDS011;5763;42.714;23.244;2022-12-29T08:42:09;16.80;;;13.30;;
11414;SDS011;5763;42.714;23.244;2022-12-29T08:44:36;18.38;;;13.73;;
11414;SDS011;5763;42.714;23.244;2022-12-29T08:47:03;19.05;;;14.85;;
11414;SDS011;5763;42.714;23.244;2022-12-29T08:49:30;19.60;;;14.52;;
11414;SDS011;5763;42.714;23.244;2022-12-29T08:51:58;18.67;;;15.20;;
11414;SDS011;5763;42.714;23.244;2022-12-29T08:54:26;20.05;;;16.10;;
11414;SDS011;5763;42.714;23.244;2022-12-29T08:56:53;19.60;;;16.38;;
11414;SDS011;5763;42.714;23.244;2022-12-29T08:59:20;26.00;;;17.38;;
11414;SDS011;5763;42.714;23.244;2022-12-29T09:01:47;24.42;;;16.65;;
11414;SDS011;5763;42.714;23.244;2022-12-29T09:04:13;22.35;;;17.35;;
11414;SDS011;5763;42.714;23.244;2022-12-29T09:06:40;18.88;;;15.23;;
11414;SDS011;5763;42.714;23.244;2022-12-29T09:09:07;22.73;;;16.48;;
11414;SDS011;5763;42.714;23.244;2022-12-29T09:11:35;20.40;;;15.90;;
11414;SDS011;5763;42.714;23.244;2022-12-29T09:14:02;21.10;;;16.92;;
11414;SDS011;5763;42.714;23.244;2022-12-29T09:16:29;21.13;;;16.40;;
11414;SDS011;5763;42.714;23.244;2022-12-29T09:18:55;19.55;;;15.63;;
11414;SDS011;5763;42.714;23.244;2022-12-29T09:21:22;22.42;;;17.02;;
11414;SDS011;5763;42.714;23.244;2022-12-29T09:23:49;23.23;;;17.48;;
11414;SDS011;5763;42.714;23.244;2022-12-29T09:26:16;24.65;;;18.65;;
11414;SDS011;5763;42.714;23.244;2022-12-29T09:28:44;22.70;;;18.45;;
11414;SDS011;5763;42.714;23.244;2022-12-29T09:31:12;21.65;;;18.00;;
11414;SDS011;5763;42.714;23.244;2022-12-29T09:33:39;20.08;;;17.08;;
11414;SDS011;5763;42.714;23.244;2022-12-29T09:36:06;21.05;;;16.60;;
11414;SDS011;5763;42.714;23.244;2022-12-29T09:38:34;20.70;;;16.17;;
11414;SDS011;5763;42.714;23.244;2022-12-29T09:41:01;19.40;;;15.43;;
11414;SDS011;5763;42.714;23.244;2022-12-29T09:46:31;18.95;;;14.20;;
11414;SDS011;5763;42.714;23.244;2022-12-29T09:49:13;17.52;;;14.23;;
11414;SDS011;5763;42.714;23.244;2022-12-29T09:51:46;19.90;;;14.15;;
11414;SDS011;5763;42.714;23.244;2022-12-29T09:54:31;18.70;;;15.00;;
11414;SDS011;5763;42.714;23.244;2022-12-29T09:57:10;22.20;;;14.02;;
11414;SDS011;5763;42.714;23.244;2022-12-29T09:59:42;18.30;;;14.32;;
11414;SDS011;5763;42.714;23.244;2022-12-29T10:04:58;18.23;;;14.18;;
11414;SDS011;5763;42.714;23.244;2022-12-29T10:07:32;17.42;;;14.48;;
11414;SDS011;5763;42.714;23.244;2022-12-29T10:10:18;21.15;;;14.45;;
11414;SDS011;5763;42.714;23.244;2022-12-29T10:13:00;19.70;;;14.52;;
11414;SDS011;5763;42.714;23.244;2022-12-29T10:15:41;19.23;;;14.10;;
11414;SDS011;5763;42.714;23.244;2022-12-29T10:18:25;19.65;;;15.50;;
11414;SDS011;5763;42.714;23.244;2022-12-29T10:21:27;20.50;;;15.55;;
11414;SDS011;5763;42.714;23.244;2022-12-29T10:24:04;19.60;;;15.05;;
11414;SDS011;5763;42.714;23.244;2022-12-29T10:26:37;21.27;;;15.77;;
11414;SDS011;5763;42.714;23.244;2022-12-29T10:29:08;18.45;;;14.32;;
11414;SDS011;5763;42.714;23.244;2022-12-29T10:31:44;22.30;;;15.52;;
11414;SDS011;5763;42.714;23.244;2022-12-29T10:34:16;21.17;;;15.45;;
11414;SDS011;5763;42.714;23.244;2022-12-29T10:36:48;21.25;;;15.05;;
11414;SDS011;5763;42.714;23.244;2022-12-29T10:39:19;19.25;;;14.23;;
11414;SDS011;5763;42.714;23.244;2022-12-29T10:41:51;21.98;;;15.52;;
11414;SDS011;5763;42.714;23.244;2022-12-29T10:44:23;18.27;;;14.27;;
11414;SDS011;5763;42.714;23.244;2022-12-29T10:46:56;17.15;;;14.50;;
11414;SDS011;5763;42.714;23.244;2022-12-29T10:49:26;21.67;;;15.05;;
11414;SDS011;5763;42.714;23.244;2022-12-29T10:51:57;21.35;;;14.27;;
11414;SDS011;5763;42.714;23.244;2022-12-29T10:54:26;21.48;;;15.23;;
11414;SDS011;5763;42.714;23.244;2022-12-29T10:57:00;22.65;;;14.93;;
11414;SDS011;5763;42.714;23.244;2022-12-29T10:59:30;20.98;;;14.80;;
11414;SDS011;5763;42.714;23.244;2022-12-29T11:02:11;19.48;;;14.88;;
11414;SDS011;5763;42.714;23.244;2022-12-29T11:04:53;20.70;;;14.38;;
11414;SDS011;5763;42.714;23.244;2022-12-29T11:07:23;19.95;;;15.60;;
11414;SDS011;5763;42.714;23.244;2022-12-29T11:09:51;20.58;;;14.82;;
11414;SDS011;5763;42.714;23.244;2022-12-29T11:12:19;19.55;;;14.82;;
11414;SDS011;5763;42.714;23.244;2022-12-29T11:14:54;17.58;;;14.63;;
11414;SDS011;5763;42.714;23.244;2022-12-29T11:17:29;20.05;;;13.90;;
11414;SDS011;5763;42.714;23.244;2022-12-29T11:19:56;16.73;;;13.75;;
11414;SDS011;5763;42.714;23.244;2022-12-29T11:22:24;18.25;;;15.13;;
11414;SDS011;5763;42.714;23.244;2022-12-29T11:24:53;20.27;;;15.15;;
11414;SDS011;5763;42.714;23.244;2022-12-29T11:27:22;17.80;;;14.25;;
11414;SDS011;5763;42.714;23.244;2022-12-29T11:29:50;18.20;;;14.63;;
11414;SDS011;5763;42.714;23.244;2022-12-29T11:32:18;23.45;;;14.75;;
11414;SDS011;5763;42.714;23.244;2022-12-29T11:34:48;19.90;;;15.38;;
11414;SDS011;5763;42.714;23.244;2022-12-29T11:37:16;19.13;;;14.57;;
11414;SDS011;5763;42.714;23.244;2022-12-29T11:39:46;17.02;;;13.57;;
11414;SDS011;5763;42.714;23.244;2022-12-29T11:42:20;18.52;;;14.13;;
11414;SDS011;5763;42.714;23.244;2022-12-29T11:44:50;15.93;;;13.68;;
11414;SDS011;5763;42.714;23.244;2022-12-29T11:47:23;19.80;;;15.07;;
11414;SDS011;5763;42.714;23.244;2022-12-29T11:49:55;16.60;;;14.10;;
11414;SDS011;5763;42.714;23.244;2022-12-29T11:52:26;20.35;;;14.43;;
11414;SDS011;5763;42.714;23.244;2022-12-29T11:54:55;22.33;;;14.20;;
11414;SDS011;5763;42.714;23.244;2022-12-29T11:57:23;19.17;;;14.65;;
11414;SDS011;5763;42.714;23.244;2022-12-29T11:59:51;19.27;;;14.90;;
11414;SDS011;5763;42.714;23.244;2022-12-29T12:02:30;17.27;;;15.25;;
11414;SDS011;5763;42.714;23.244;2022-12-29T12:05:05;19.17;;;13.75;;
11414;SDS011;5763;42.714;23.244;2022-12-29T12:07:40;19.67;;;13.10;;
11414;SDS011;5763;42.714;23.244;2022-12-29T12:10:20;18.75;;;13.48;;
11414;SDS011;5763;42.714;23.244;2022-12-29T12:12:53;17.67;;;13.60;;
11414;SDS011;5763;42.714;23.244;2022-12-29T12:15:27;16.75;;;12.68;;
11414;SDS011;5763;42.714;23.244;2022-12-29T12:18:02;17.17;;;12.63;;
11414;SDS011;5763;42.714;23.244;2022-12-29T12:20:38;18.88;;;12.68;;
11414;SDS011;5763;42.714;23.244;2022-12-29T12:23:14;15.63;;;12.73;;
11414;SDS011;5763;42.714;23.244;2022-12-29T12:25:51;20.10;;;13.63;;
11414;SDS011;5763;42.714;23.244;2022-12-29T12:28:26;18.98;;;13.15;;
11414;SDS011;5763;42.714;23.244;2022-12-29T12:30:59;22.95;;;13.70;;
11414;SDS011;5763;42.714;23.244;2022-12-29T12:33:31;19.92;;;12.77;;
11414;SDS011;5763;42.714;23.244;2022-12-29T12:36:09;19.85;;;14.40;;
11414;SDS011;5763;42.714;23.244;2022-12-29T12:38:50;20.45;;;12.98;;
11414;SDS011;5763;42.714;23.244;2022-12-29T12:41:22;17.27;;;14.52;;
11414;SDS011;5763;42.714;23.244;2022-12-29T12:44:01;18.17;;;13.80;;
11414;SDS011;5763;42.714;23.244;2022-12-29T12:46:45;17.70;;;13.43;;
11414;SDS011;5763;42.714;23.244;2022-12-29T12:49:27;17.70;;;13.40;;
11414;SDS011;5763;42.714;23.244;2022-12-29T12:52:08;17.77;;;13.13;;
11414;SDS011;5763;42.714;23.244;2022-12-29T12:54:47;18.13;;;13.63;;
11414;SDS011;5763;42.714;23.244;2022-12-29T12:57:32;16.48;;;12.57;;
11414;SDS011;5763;42.714;23.244;2022-12-29T13:00:11;18.67;;;12.68;;
11414;SDS011;5763;42.714;23.244;2022-12-29T13:02:46;18.27;;;13.07;;
11414;SDS011;5763;42.714;23.244;2022-12-29T13:05:26;18.33;;;13.07;;
11414;SDS011;5763;42.714;23.244;2022-12-29T13:08:24;19.15;;;13.80;;
11414;SDS011;5763;42.714;23.244;2022-12-29T13:11:04;18.25;;;13.75;;
11414;SDS011;5763;42.714;23.244;2022-12-29T13:13:49;16.75;;;12.85;;
11414;SDS011;5763;42.714;23.244;2022-12-29T13:16:34;19.77;;;13.68;;
11414;SDS011;5763;42.714;23.244;2022-12-29T13:19:09;15.35;;;13.13;;
11414;SDS011;5763;42.714;23.244;2022-12-29T13:24:34;14.98;;;13.38;;
11414;SDS011;5763;42.714;23.244;2022-12-29T13:27:13;23.55;;;13.80;;
11414;SDS011;5763;42.714;23.244;2022-12-29T13:29:47;17.55;;;13.65;;
11414;SDS011;5763;42.714;23.244;2022-12-29T13:32:21;17.38;;;13.93;;
11414;SDS011;5763;42.714;23.244;2022-12-29T13:34:57;18.98;;;14.25;;
11414;SDS011;5763;42.714;23.244;2022-12-29T13:37:34;21.98;;;14.18;;
11414;SDS011;5763;42.714;23.244;2022-12-29T13:40:12;23.15;;;15.57;;
11414;SDS011;5763;42.714;23.244;2022-12-29T13:42:42;21.38;;;15.32;;
11414;SDS011;5763;42.714;23.244;2022-12-29T13:45:10;24.10;;;15.80;;
11414;SDS011;5763;42.714;23.244;2022-12-29T13:47:41;18.60;;;14.95;;
11414;SDS011;5763;42.714;23.244;2022-12-29T13:50:13;22.00;;;16.23;;
11414;SDS011;5763;42.714;23.244;2022-12-29T13:52:43;23.60;;;15.80;;
11414;SDS011;5763;42.714;23.244;2022-12-29T13:55:22;23.20;;;16.52;;
11414;SDS011;5763;42.714;23.244;2022-12-29T13:57:53;22.73;;;15.93;;
11414;SDS011;5763;42.714;23.244;2022-12-29T14:00:30;23.27;;;17.33;;
11414;SDS011;5763;42.714;23.244;2022-12-29T14:03:04;24.95;;;15.82;;
11414;SDS011;5763;42.714;23.244;2022-12-29T14:06:05;25.73;;;17.75;;
11414;SDS011;5763;42.714;23.244;2022-12-29T14:08:41;25.38;;;16.70;;
11414;SDS011;5763;42.714;23.244;2022-12-29T14:11:11;25.10;;;17.13;;
11414;SDS011;5763;42.714;23.244;2022-12-29T14:13:40;24.05;;;17.33;;
11414;SDS011;5763;42.714;23.244;2022-12-29T14:16:10;20.35;;;17.27;;
11414;SDS011;5763;42.714;23.244;2022-12-29T14:18:51;27.67;;;17.88;;
11414;SDS011;5763;42.714;23.244;2022-12-29T14:21:19;26.55;;;18.10;;
11414;SDS011;5763;42.714;23.244;2022-12-29T14:23:53;23.08;;;16.77;;
11414;SDS011;5763;42.714;23.244;2022-12-29T14:26:34;23.67;;;16.38;;
11414;SDS011;5763;42.714;23.244;2022-12-29T14:38:18;19.83;;;15.55;;
11414;SDS011;5763;42.714;23.244;2022-12-29T14:40:48;22.95;;;15.88;;
11414;SDS011;5763;42.714;23.244;2022-12-29T14:43:21;19.75;;;15.85;;
11414;SDS011;5763;42.714;23.244;2022-12-29T14:45:53;21.48;;;15.57;;
11414;SDS011;5763;42.714;23.244;2022-12-29T14:48:33;25.83;;;17.58;;
11414;SDS011;5763;42.714;23.244;2022-12-29T14:51:17;28.52;;;17.13;;
11414;SDS011;5763;42.714;23.244;2022-12-29T14:53:47;26.52;;;17.30;;
11414;SDS011;5763;42.714;23.244;2022-12-29T14:56:16;29.02;;;19.25;;
11414;SDS011;5763;42.714;23.244;2022-12-29T14:58:47;24.67;;;19.27;;
11414;SDS011;5763;42.714;23.244;2022-12-29T15:01:18;32.08;;;20.13;;
11414;SDS011;5763;42.714;23.244;2022-12-29T15:03:49;29.38;;;21.30;;
11414;SDS011;5763;42.714;23.244;2022-12-29T15:06:18;29.67;;;21.63;;
11414;SDS011;5763;42.714;23.244;2022-12-29T15:08:48;30.27;;;22.17;;
11414;SDS011;5763;42.714;23.244;2022-12-29T15:11:19;36.88;;;25.88;;
11414;SDS011;5763;42.714;23.244;2022-12-29T15:13:48;49.83;;;30.35;;
11414;SDS011;5763;42.714;23.244;2022-12-29T15:16:22;40.13;;;29.13;;
11414;SDS011;5763;42.714;23.244;2022-12-29T15:18:51;47.13;;;31.55;;